sensor_id;sensor_type;location;lat;lon;timestamp;P1;durP1;ratioP1;P2;durP2;ratioP2
76852;SDS011;65825;52.232;10.566;2024-02-23T00:01:31;1.52;;;0.82;;
76852;SDS011;65825;52.232;10.566;2024-02-23T00:03:56;5.33;;;0.77;;
76852;SDS011;65825;52.232;10.566;2024-02-23T00:06:21;4.93;;;0.90;;
76852;SDS011;65825;52.232;10.566;2024-02-23T00:08:52;4.32;;;1.45;;
76852;SDS011;65825;52.232;10.566;2024-02-23T00:13:44;2.53;;;1.10;;
76852;SDS011;65825;52.232;10.566;2024-02-23T00:16:10;2.08;;;0.85;;
76852;SDS011;65825;52.232;10.566;2024-02-23T00:18:36;4.70;;;0.88;;
76852;SDS011;65825;52.232;10.566;2024-02-23T00:21:01;3.67;;;0.77;;
76852;SDS011;65825;52.232;10.566;2024-02-23T00:23:27;1.85;;;0.90;;
76852;SDS011;65825;52.232;10.566;2024-02-23T00:25:53;2.17;;;0.73;;
76852;SDS011;65825;52.232;10.566;2024-02-23T00:28:19;3.67;;;0.70;;
76852;SDS011;65825;52.232;10.566;2024-02-23T00:30:44;2.50;;;0.97;;
76852;SDS011;65825;52.232;10.566;2024-02-23T00:33:09;8.03;;;0.90;;
76852;SDS011;65825;52.232;10.566;2024-02-23T00:35:35;4.28;;;1.20;;
76852;SDS011;65825;52.232;10.566;2024-02-23T00:38:00;2.03;;;0.80;;
76852;SDS011;65825;52.232;10.566;2024-02-23T00:40:25;3.53;;;1.08;;
76852;SDS011;65825;52.232;10.566;2024-02-23T00:42:51;3.63;;;0.93;;
76852;SDS011;65825;52.232;10.566;2024-02-23T00:45:16;3.17;;;0.83;;
76852;SDS011;65825;52.232;10.566;2024-02-23T00:47:42;2.67;;;0.60;;
76852;SDS011;65825;52.232;10.566;2024-02-23T00:50:08;1.77;;;0.70;;
76852;SDS011;65825;52.232;10.566;2024-02-23T00:52:34;3.20;;;0.70;;
76852;SDS011;65825;52.232;10.566;2024-02-23T00:54:59;2.87;;;0.50;;
76852;SDS011;65825;52.232;10.566;2024-02-23T00:57:25;1.85;;;0.60;;
76852;SDS011;65825;52.232;10.566;2024-02-23T00:59:54;1.35;;;0.57;;
76852;SDS011;65825;52.232;10.566;2024-02-23T01:02:21;1.73;;;0.50;;
76852;SDS011;65825;52.232;10.566;2024-02-23T01:04:46;0.60;;;0.40;;
76852;SDS011;65825;52.232;10.566;2024-02-23T01:07:12;1.88;;;0.40;;
76852;SDS011;65825;52.232;10.566;2024-02-23T01:09:37;4.90;;;0.40;;
76852;SDS011;65825;52.232;10.566;2024-02-23T01:12:02;1.60;;;0.40;;
76852;SDS011;65825;52.232;10.566;2024-02-23T01:14:28;1.70;;;0.30;;
76852;SDS011;65825;52.232;10.566;2024-02-23T01:16:53;1.27;;;0.30;;
76852;SDS011;65825;52.232;10.566;2024-02-23T01:19:18;1.30;;;0.40;;
76852;SDS011;65825;52.232;10.566;2024-02-23T01:21:43;1.47;;;0.40;;
76852;SDS011;65825;52.232;10.566;2024-02-23T01:24:09;1.80;;;0.63;;
76852;SDS011;65825;52.232;10.566;2024-02-23T01:26:34;2.97;;;0.77;;
76852;SDS011;65825;52.232;10.566;2024-02-23T01:28:59;2.63;;;0.60;;
76852;SDS011;65825;52.232;10.566;2024-02-23T01:31:24;2.80;;;0.90;;
76852;SDS011;65825;52.232;10.566;2024-02-23T01:33:50;3.17;;;0.80;;
76852;SDS011;65825;52.232;10.566;2024-02-23T01:36:16;1.30;;;0.50;;
76852;SDS011;65825;52.232;10.566;2024-02-23T01:38:42;3.55;;;0.50;;
76852;SDS011;65825;52.232;10.566;2024-02-23T01:41:08;1.60;;;0.60;;
76852;SDS011;65825;52.232;10.566;2024-02-23T01:43:33;3.55;;;1.25;;
76852;SDS011;65825;52.232;10.566;2024-02-23T01:45:59;5.43;;;0.50;;
76852;SDS011;65825;52.232;10.566;2024-02-23T01:48:24;1.93;;;0.70;;
76852;SDS011;65825;52.232;10.566;2024-02-23T01:50:50;2.35;;;0.40;;
76852;SDS011;65825;52.232;10.566;2024-02-23T01:53:15;1.93;;;0.70;;
76852;SDS011;65825;52.232;10.566;2024-02-23T01:55:44;0.95;;;0.20;;
76852;SDS011;65825;52.232;10.566;2024-02-23T01:58:10;1.13;;;0.30;;
76852;SDS011;65825;52.232;10.566;2024-02-23T02:00:36;2.85;;;0.52;;
76852;SDS011;65825;52.232;10.566;2024-02-23T02:03:01;0.40;;;0.30;;
76852;SDS011;65825;52.232;10.566;2024-02-23T02:05:27;0.40;;;0.35;;
76852;SDS011;65825;52.232;10.566;2024-02-23T02:07:53;1.08;;;0.35;;
76852;SDS011;65825;52.232;10.566;2024-02-23T02:10:23;1.75;;;0.30;;
76852;SDS011;65825;52.232;10.566;2024-02-23T02:12:49;0.40;;;0.40;;
76852;SDS011;65825;52.232;10.566;2024-02-23T02:15:14;0.10;;;0.10;;
76852;SDS011;65825;52.232;10.566;2024-02-23T02:17:39;0.17;;;0.17;;
76852;SDS011;65825;52.232;10.566;2024-02-23T02:20:05;0.50;;;0.30;;
76852;SDS011;65825;52.232;10.566;2024-02-23T02:22:35;0.50;;;0.30;;
76852;SDS011;65825;52.232;10.566;2024-02-23T02:25:01;0.40;;;0.30;;
76852;SDS011;65825;52.232;10.566;2024-02-23T02:27:26;0.47;;;0.20;;
76852;SDS011;65825;52.232;10.566;2024-02-23T02:29:51;0.50;;;0.33;;
76852;SDS011;65825;52.232;10.566;2024-02-23T02:32:17;0.30;;;0.30;;
76852;SDS011;65825;52.232;10.566;2024-02-23T02:34:42;0.40;;;0.33;;
76852;SDS011;65825;52.232;10.566;2024-02-23T02:37:07;0.40;;;0.30;;
76852;SDS011;65825;52.232;10.566;2024-02-23T02:39:32;0.37;;;0.30;;
76852;SDS011;65825;52.232;10.566;2024-02-23T02:41:58;0.20;;;0.20;;
76852;SDS011;65825;52.232;10.566;2024-02-23T02:44:23;0.43;;;0.30;;
76852;SDS011;65825;52.232;10.566;2024-02-23T02:46:48;0.23;;;0.23;;
76852;SDS011;65825;52.232;10.566;2024-02-23T02:49:14;0.30;;;0.30;;
76852;SDS011;65825;52.232;10.566;2024-02-23T02:51:39;0.50;;;0.30;;
76852;SDS011;65825;52.232;10.566;2024-02-23T02:54:04;0.40;;;0.30;;
76852;SDS011;65825;52.232;10.566;2024-02-23T02:56:30;0.35;;;0.20;;
76852;SDS011;65825;52.232;10.566;2024-02-23T02:58:55;0.97;;;0.30;;
76852;SDS011;65825;52.232;10.566;2024-02-23T03:01:21;0.32;;;0.30;;
76852;SDS011;65825;52.232;10.566;2024-02-23T03:03:46;1.10;;;0.20;;
76852;SDS011;65825;52.232;10.566;2024-02-23T03:06:12;3.28;;;0.40;;
76852;SDS011;65825;52.232;10.566;2024-02-23T03:08:37;0.57;;;0.50;;
76852;SDS011;65825;52.232;10.566;2024-02-23T03:11:02;0.70;;;0.30;;
76852;SDS011;65825;52.232;10.566;2024-02-23T03:13:28;0.50;;;0.40;;
76852;SDS011;65825;52.232;10.566;2024-02-23T03:15:53;0.53;;;0.40;;
76852;SDS011;65825;52.232;10.566;2024-02-23T03:18:18;0.60;;;0.40;;
76852;SDS011;65825;52.232;10.566;2024-02-23T03:20:43;0.53;;;0.50;;
76852;SDS011;65825;52.232;10.566;2024-02-23T03:23:09;1.03;;;0.30;;
76852;SDS011;65825;52.232;10.566;2024-02-23T03:25:34;2.40;;;0.75;;
76852;SDS011;65825;52.232;10.566;2024-02-23T03:28:00;1.63;;;0.40;;
76852;SDS011;65825;52.232;10.566;2024-02-23T03:30:25;0.32;;;0.30;;
76852;SDS011;65825;52.232;10.566;2024-02-23T03:32:50;0.40;;;0.40;;
76852;SDS011;65825;52.232;10.566;2024-02-23T03:35:16;0.70;;;0.50;;
76852;SDS011;65825;52.232;10.566;2024-02-23T03:37:41;1.40;;;0.40;;
76852;SDS011;65825;52.232;10.566;2024-02-23T03:40:07;0.50;;;0.35;;
76852;SDS011;65825;52.232;10.566;2024-02-23T03:42:32;0.55;;;0.50;;
76852;SDS011;65825;52.232;10.566;2024-02-23T03:44:58;1.67;;;0.57;;
76852;SDS011;65825;52.232;10.566;2024-02-23T03:47:23;0.50;;;0.50;;
76852;SDS011;65825;52.232;10.566;2024-02-23T03:49:48;1.13;;;0.43;;
76852;SDS011;65825;52.232;10.566;2024-02-23T03:52:13;0.50;;;0.50;;
76852;SDS011;65825;52.232;10.566;2024-02-23T03:54:39;1.70;;;0.83;;
76852;SDS011;65825;52.232;10.566;2024-02-23T03:57:04;1.03;;;0.40;;
76852;SDS011;65825;52.232;10.566;2024-02-23T03:59:29;1.25;;;0.80;;
76852;SDS011;65825;52.232;10.566;2024-02-23T04:01:55;1.80;;;0.60;;
76852;SDS011;65825;52.232;10.566;2024-02-23T04:04:20;1.02;;;0.60;;
76852;SDS011;65825;52.232;10.566;2024-02-23T04:06:46;1.07;;;0.57;;
76852;SDS011;65825;52.232;10.566;2024-02-23T04:09:11;1.00;;;0.60;;
76852;SDS011;65825;52.232;10.566;2024-02-23T04:11:36;0.93;;;0.40;;
76852;SDS011;65825;52.232;10.566;2024-02-23T04:14:01;2.33;;;0.60;;
76852;SDS011;65825;52.232;10.566;2024-02-23T04:16:27;2.13;;;0.70;;
76852;SDS011;65825;52.232;10.566;2024-02-23T04:18:53;0.60;;;0.43;;
76852;SDS011;65825;52.232;10.566;2024-02-23T04:21:19;0.90;;;0.70;;
76852;SDS011;65825;52.232;10.566;2024-02-23T04:23:44;3.50;;;0.98;;
76852;SDS011;65825;52.232;10.566;2024-02-23T04:26:10;0.80;;;0.80;;
76852;SDS011;65825;52.232;10.566;2024-02-23T04:28:37;0.90;;;0.90;;
76852;SDS011;65825;52.232;10.566;2024-02-23T04:31:03;0.98;;;0.75;;
76852;SDS011;65825;52.232;10.566;2024-02-23T04:33:29;2.40;;;0.60;;
76852;SDS011;65825;52.232;10.566;2024-02-23T04:35:54;3.60;;;1.10;;
76852;SDS011;65825;52.232;10.566;2024-02-23T04:38:19;1.10;;;0.80;;
76852;SDS011;65825;52.232;10.566;2024-02-23T04:40:45;0.77;;;0.67;;
76852;SDS011;65825;52.232;10.566;2024-02-23T04:43:10;0.80;;;0.60;;
76852;SDS011;65825;52.232;10.566;2024-02-23T04:45:35;0.90;;;0.70;;
76852;SDS011;65825;52.232;10.566;2024-02-23T04:48:01;0.50;;;0.50;;
76852;SDS011;65825;52.232;10.566;2024-02-23T04:50:27;0.82;;;0.70;;
76852;SDS011;65825;52.232;10.566;2024-02-23T04:52:52;1.43;;;0.70;;
76852;SDS011;65825;52.232;10.566;2024-02-23T04:55:18;1.13;;;0.73;;
76852;SDS011;65825;52.232;10.566;2024-02-23T04:57:43;1.02;;;0.70;;
76852;SDS011;65825;52.232;10.566;2024-02-23T05:00:08;2.97;;;1.00;;
76852;SDS011;65825;52.232;10.566;2024-02-23T05:02:34;2.33;;;0.80;;
76852;SDS011;65825;52.232;10.566;2024-02-23T05:05:01;2.35;;;0.80;;
76852;SDS011;65825;52.232;10.566;2024-02-23T05:07:32;2.63;;;0.90;;
76852;SDS011;65825;52.232;10.566;2024-02-23T05:09:58;4.22;;;1.23;;
76852;SDS011;65825;52.232;10.566;2024-02-23T05:12:23;2.07;;;1.23;;
76852;SDS011;65825;52.232;10.566;2024-02-23T05:14:48;6.37;;;3.23;;
76852;SDS011;65825;52.232;10.566;2024-02-23T05:17:14;14.47;;;5.77;;
76852;SDS011;65825;52.232;10.566;2024-02-23T05:19:39;2.30;;;1.10;;
76852;SDS011;65825;52.232;10.566;2024-02-23T05:22:04;2.13;;;1.13;;
76852;SDS011;65825;52.232;10.566;2024-02-23T05:24:29;8.07;;;1.70;;
76852;SDS011;65825;52.232;10.566;2024-02-23T05:26:55;5.47;;;2.78;;
76852;SDS011;65825;52.232;10.566;2024-02-23T05:29:20;8.47;;;3.00;;
76852;SDS011;65825;52.232;10.566;2024-02-23T05:31:51;5.40;;;2.80;;
76852;SDS011;65825;52.232;10.566;2024-02-23T05:34:17;18.17;;;7.80;;
76852;SDS011;65825;52.232;10.566;2024-02-23T05:36:43;3.03;;;0.90;;
76852;SDS011;65825;52.232;10.566;2024-02-23T05:39:10;13.38;;;4.40;;
76852;SDS011;65825;52.232;10.566;2024-02-23T05:41:37;4.70;;;1.75;;
76852;SDS011;65825;52.232;10.566;2024-02-23T05:44:03;10.15;;;5.22;;
76852;SDS011;65825;52.232;10.566;2024-02-23T05:46:30;10.98;;;4.90;;
76852;SDS011;65825;52.232;10.566;2024-02-23T05:48:56;3.95;;;1.75;;
76852;SDS011;65825;52.232;10.566;2024-02-23T05:51:22;6.10;;;3.00;;
76852;SDS011;65825;52.232;10.566;2024-02-23T05:53:47;18.20;;;9.80;;
76852;SDS011;65825;52.232;10.566;2024-02-23T05:56:12;14.17;;;5.73;;
76852;SDS011;65825;52.232;10.566;2024-02-23T05:58:37;7.17;;;3.87;;
76852;SDS011;65825;52.232;10.566;2024-02-23T06:01:03;8.73;;;4.32;;
76852;SDS011;65825;52.232;10.566;2024-02-23T06:03:29;5.13;;;2.92;;
76852;SDS011;65825;52.232;10.566;2024-02-23T06:05:54;7.47;;;4.60;;
76852;SDS011;65825;52.232;10.566;2024-02-23T06:08:19;5.53;;;2.38;;
76852;SDS011;65825;52.232;10.566;2024-02-23T06:10:45;11.13;;;4.40;;
76852;SDS011;65825;52.232;10.566;2024-02-23T06:13:10;22.43;;;9.20;;
76852;SDS011;65825;52.232;10.566;2024-02-23T06:15:35;10.27;;;5.80;;
76852;SDS011;65825;52.232;10.566;2024-02-23T06:18:01;8.40;;;4.47;;
76852;SDS011;65825;52.232;10.566;2024-02-23T06:20:26;7.20;;;4.07;;
76852;SDS011;65825;52.232;10.566;2024-02-23T06:22:51;15.37;;;8.23;;
76852;SDS011;65825;52.232;10.566;2024-02-23T06:25:16;11.00;;;4.63;;
76852;SDS011;65825;52.232;10.566;2024-02-23T06:27:42;8.30;;;4.57;;
76852;SDS011;65825;52.232;10.566;2024-02-23T06:30:07;5.27;;;2.30;;
76852;SDS011;65825;52.232;10.566;2024-02-23T06:32:33;6.45;;;3.55;;
76852;SDS011;65825;52.232;10.566;2024-02-23T06:34:58;6.20;;;3.50;;
76852;SDS011;65825;52.232;10.566;2024-02-23T06:37:23;8.53;;;4.53;;
76852;SDS011;65825;52.232;10.566;2024-02-23T06:39:49;9.77;;;3.83;;
76852;SDS011;65825;52.232;10.566;2024-02-23T06:42:19;7.07;;;4.00;;
76852;SDS011;65825;52.232;10.566;2024-02-23T06:44:45;2.95;;;2.00;;
76852;SDS011;65825;52.232;10.566;2024-02-23T06:47:10;6.70;;;3.03;;
76852;SDS011;65825;52.232;10.566;2024-02-23T06:49:35;17.50;;;9.30;;
76852;SDS011;65825;52.232;10.566;2024-02-23T06:52:01;1.10;;;1.00;;
76852;SDS011;65825;52.232;10.566;2024-02-23T06:54:26;4.03;;;1.10;;
76852;SDS011;65825;52.232;10.566;2024-02-23T06:56:51;2.73;;;1.50;;
76852;SDS011;65825;52.232;10.566;2024-02-23T06:59:16;3.83;;;2.17;;
76852;SDS011;65825;52.232;10.566;2024-02-23T07:01:51;3.13;;;1.30;;
76852;SDS011;65825;52.232;10.566;2024-02-23T07:04:17;5.65;;;1.50;;
76852;SDS011;65825;52.232;10.566;2024-02-23T07:06:43;3.28;;;1.63;;
76852;SDS011;65825;52.232;10.566;2024-02-23T07:09:08;1.75;;;0.90;;
76852;SDS011;65825;52.232;10.566;2024-02-23T07:11:34;4.07;;;1.13;;
76852;SDS011;65825;52.232;10.566;2024-02-23T07:13:59;1.17;;;0.88;;
76852;SDS011;65825;52.232;10.566;2024-02-23T07:16:24;2.97;;;1.27;;
76852;SDS011;65825;52.232;10.566;2024-02-23T07:18:50;2.77;;;0.87;;
76852;SDS011;65825;52.232;10.566;2024-02-23T07:21:18;2.93;;;1.20;;
76852;SDS011;65825;52.232;10.566;2024-02-23T07:23:43;2.58;;;0.90;;
76852;SDS011;65825;52.232;10.566;2024-02-23T07:26:08;1.70;;;0.40;;
76852;SDS011;65825;52.232;10.566;2024-02-23T07:28:34;1.87;;;0.83;;
76852;SDS011;65825;52.232;10.566;2024-02-23T07:30:59;2.80;;;1.37;;
76852;SDS011;65825;52.232;10.566;2024-02-23T07:33:24;3.47;;;0.90;;
76852;SDS011;65825;52.232;10.566;2024-02-23T07:35:49;4.25;;;1.10;;
76852;SDS011;65825;52.232;10.566;2024-02-23T07:38:15;1.47;;;0.43;;
76852;SDS011;65825;52.232;10.566;2024-02-23T07:40:42;0.80;;;0.43;;
76852;SDS011;65825;52.232;10.566;2024-02-23T07:43:08;1.75;;;0.43;;
76852;SDS011;65825;52.232;10.566;2024-02-23T07:45:36;1.45;;;0.40;;
76852;SDS011;65825;52.232;10.566;2024-02-23T07:48:01;0.70;;;0.40;;
76852;SDS011;65825;52.232;10.566;2024-02-23T07:50:27;1.90;;;0.60;;
76852;SDS011;65825;52.232;10.566;2024-02-23T07:52:52;2.90;;;0.80;;
76852;SDS011;65825;52.232;10.566;2024-02-23T07:55:17;1.70;;;0.60;;
76852;SDS011;65825;52.232;10.566;2024-02-23T07:57:43;2.90;;;0.60;;
76852;SDS011;65825;52.232;10.566;2024-02-23T08:00:08;3.85;;;0.80;;
76852;SDS011;65825;52.232;10.566;2024-02-23T08:02:35;3.15;;;0.50;;
76852;SDS011;65825;52.232;10.566;2024-02-23T08:05:00;4.32;;;0.60;;
76852;SDS011;65825;52.232;10.566;2024-02-23T08:07:26;3.40;;;1.27;;
76852;SDS011;65825;52.232;10.566;2024-02-23T08:09:53;4.07;;;1.40;;
76852;SDS011;65825;52.232;10.566;2024-02-23T08:12:19;4.60;;;1.20;;
76852;SDS011;65825;52.232;10.566;2024-02-23T08:14:44;1.38;;;0.65;;
76852;SDS011;65825;52.232;10.566;2024-02-23T08:17:10;1.77;;;0.70;;
76852;SDS011;65825;52.232;10.566;2024-02-23T08:19:36;2.45;;;0.43;;
76852;SDS011;65825;52.232;10.566;2024-02-23T08:22:01;1.83;;;0.50;;
76852;SDS011;65825;52.232;10.566;2024-02-23T08:24:26;0.70;;;0.60;;
76852;SDS011;65825;52.232;10.566;2024-02-23T08:26:51;0.73;;;0.73;;
76852;SDS011;65825;52.232;10.566;2024-02-23T08:29:17;3.33;;;1.10;;
76852;SDS011;65825;52.232;10.566;2024-02-23T08:31:42;3.23;;;0.70;;
76852;SDS011;65825;52.232;10.566;2024-02-23T08:34:07;1.33;;;0.30;;
76852;SDS011;65825;52.232;10.566;2024-02-23T08:36:33;6.07;;;1.43;;
76852;SDS011;65825;52.232;10.566;2024-02-23T08:38:58;2.57;;;0.50;;
76852;SDS011;65825;52.232;10.566;2024-02-23T08:41:23;3.67;;;0.70;;
76852;SDS011;65825;52.232;10.566;2024-02-23T08:43:48;2.87;;;0.80;;
76852;SDS011;65825;52.232;10.566;2024-02-23T08:46:15;1.63;;;0.50;;
76852;SDS011;65825;52.232;10.566;2024-02-23T08:48:40;1.80;;;0.47;;
76852;SDS011;65825;52.232;10.566;2024-02-23T08:51:05;1.90;;;0.50;;
76852;SDS011;65825;52.232;10.566;2024-02-23T08:53:30;1.97;;;0.70;;
76852;SDS011;65825;52.232;10.566;2024-02-23T08:55:55;2.63;;;0.70;;
76852;SDS011;65825;52.232;10.566;2024-02-23T08:58:21;3.10;;;0.73;;
76852;SDS011;65825;52.232;10.566;2024-02-23T09:00:46;2.93;;;0.50;;
76852;SDS011;65825;52.232;10.566;2024-02-23T09:03:11;0.73;;;0.30;;
76852;SDS011;65825;52.232;10.566;2024-02-23T09:05:37;1.47;;;0.40;;
76852;SDS011;65825;52.232;10.566;2024-02-23T09:08:02;1.07;;;0.40;;
76852;SDS011;65825;52.232;10.566;2024-02-23T09:10:27;3.38;;;0.88;;
76852;SDS011;65825;52.232;10.566;2024-02-23T09:12:52;4.70;;;1.03;;
76852;SDS011;65825;52.232;10.566;2024-02-23T09:15:18;0.60;;;0.50;;
76852;SDS011;65825;52.232;10.566;2024-02-23T09:17:43;2.07;;;0.30;;
76852;SDS011;65825;52.232;10.566;2024-02-23T09:20:08;2.70;;;0.40;;
76852;SDS011;65825;52.232;10.566;2024-02-23T09:22:34;1.35;;;0.63;;
76852;SDS011;65825;52.232;10.566;2024-02-23T09:25:01;2.28;;;0.47;;
76852;SDS011;65825;52.232;10.566;2024-02-23T09:27:27;3.67;;;0.70;;
76852;SDS011;65825;52.232;10.566;2024-02-23T09:29:52;1.27;;;0.43;;
76852;SDS011;65825;52.232;10.566;2024-02-23T09:32:17;2.20;;;0.40;;
76852;SDS011;65825;52.232;10.566;2024-02-23T09:34:42;1.70;;;0.50;;
76852;SDS011;65825;52.232;10.566;2024-02-23T09:37:08;0.57;;;0.50;;
76852;SDS011;65825;52.232;10.566;2024-02-23T09:39:33;1.90;;;0.37;;
76852;SDS011;65825;52.232;10.566;2024-02-23T09:41:59;2.45;;;0.38;;
76852;SDS011;65825;52.232;10.566;2024-02-23T09:44:27;1.55;;;0.40;;
76852;SDS011;65825;52.232;10.566;2024-02-23T09:46:59;1.58;;;0.32;;
76852;SDS011;65825;52.232;10.566;2024-02-23T09:49:26;0.40;;;0.30;;
76852;SDS011;65825;52.232;10.566;2024-02-23T09:51:51;1.23;;;0.37;;
76852;SDS011;65825;52.232;10.566;2024-02-23T09:54:18;2.15;;;0.45;;
76852;SDS011;65825;52.232;10.566;2024-02-23T09:56:44;2.13;;;0.40;;
76852;SDS011;65825;52.232;10.566;2024-02-23T09:59:09;2.88;;;0.50;;
76852;SDS011;65825;52.232;10.566;2024-02-23T10:01:35;1.75;;;0.40;;
76852;SDS011;65825;52.232;10.566;2024-02-23T10:04:01;2.85;;;0.50;;
76852;SDS011;65825;52.232;10.566;2024-02-23T10:06:29;1.60;;;0.47;;
76852;SDS011;65825;52.232;10.566;2024-02-23T10:08:55;2.40;;;0.32;;
76852;SDS011;65825;52.232;10.566;2024-02-23T10:11:20;2.03;;;0.50;;
76852;SDS011;65825;52.232;10.566;2024-02-23T10:13:49;3.38;;;0.47;;
76852;SDS011;65825;52.232;10.566;2024-02-23T10:16:18;2.85;;;0.40;;
76852;SDS011;65825;52.232;10.566;2024-02-23T10:18:48;3.15;;;0.55;;
76852;SDS011;65825;52.232;10.566;2024-02-23T10:21:14;2.70;;;0.60;;
76852;SDS011;65825;52.232;10.566;2024-02-23T10:23:46;2.88;;;0.50;;
76852;SDS011;65825;52.232;10.566;2024-02-23T10:26:12;0.70;;;0.30;;
76852;SDS011;65825;52.232;10.566;2024-02-23T10:28:37;1.90;;;0.50;;
76852;SDS011;65825;52.232;10.566;2024-02-23T10:31:05;1.70;;;0.50;;
76852;SDS011;65825;52.232;10.566;2024-02-23T10:33:31;3.47;;;0.82;;
76852;SDS011;65825;52.232;10.566;2024-02-23T10:35:57;4.53;;;0.40;;
76852;SDS011;65825;52.232;10.566;2024-02-23T10:38:26;2.58;;;0.60;;
76852;SDS011;65825;52.232;10.566;2024-02-23T10:40:53;3.40;;;0.43;;
76852;SDS011;65825;52.232;10.566;2024-02-23T10:43:21;1.73;;;0.40;;
76852;SDS011;65825;52.232;10.566;2024-02-23T10:46:09;0.35;;;0.30;;
76852;SDS011;65825;52.232;10.566;2024-02-23T10:48:38;3.80;;;0.63;;
76852;SDS011;65825;52.232;10.566;2024-02-23T10:51:07;1.67;;;0.63;;
76852;SDS011;65825;52.232;10.566;2024-02-23T10:53:33;1.65;;;0.40;;
76852;SDS011;65825;52.232;10.566;2024-02-23T10:56:00;1.25;;;0.35;;
76852;SDS011;65825;52.232;10.566;2024-02-23T10:58:26;3.15;;;0.80;;
76852;SDS011;65825;52.232;10.566;2024-02-23T11:00:52;2.15;;;0.50;;
76852;SDS011;65825;52.232;10.566;2024-02-23T11:03:24;4.00;;;0.70;;
76852;SDS011;65825;52.232;10.566;2024-02-23T11:05:50;1.38;;;0.50;;
76852;SDS011;65825;52.232;10.566;2024-02-23T11:08:18;3.40;;;0.75;;
76852;SDS011;65825;52.232;10.566;2024-02-23T11:10:50;0.47;;;0.28;;
76852;SDS011;65825;52.232;10.566;2024-02-23T11:13:29;2.95;;;0.60;;
76852;SDS011;65825;52.232;10.566;2024-02-23T11:16:01;1.05;;;0.52;;
76852;SDS011;65825;52.232;10.566;2024-02-23T11:18:27;1.45;;;0.55;;
76852;SDS011;65825;52.232;10.566;2024-02-23T11:20:58;2.58;;;0.73;;
76852;SDS011;65825;52.232;10.566;2024-02-23T11:23:24;1.90;;;0.57;;
76852;SDS011;65825;52.232;10.566;2024-02-23T11:26:04;0.82;;;0.60;;
76852;SDS011;65825;52.232;10.566;2024-02-23T11:28:30;2.83;;;0.60;;
76852;SDS011;65825;52.232;10.566;2024-02-23T11:30:56;2.53;;;0.50;;
76852;SDS011;65825;52.232;10.566;2024-02-23T11:33:25;4.13;;;1.05;;
76852;SDS011;65825;52.232;10.566;2024-02-23T11:36:04;4.13;;;0.70;;
76852;SDS011;65825;52.232;10.566;2024-02-23T11:38:30;5.30;;;1.02;;
76852;SDS011;65825;52.232;10.566;2024-02-23T11:40:56;0.82;;;0.55;;
76852;SDS011;65825;52.232;10.566;2024-02-23T11:43:22;0.85;;;0.35;;
76852;SDS011;65825;52.232;10.566;2024-02-23T11:45:47;2.90;;;0.63;;
76852;SDS011;65825;52.232;10.566;2024-02-23T11:48:12;2.17;;;0.50;;
76852;SDS011;65825;52.232;10.566;2024-02-23T11:50:38;1.60;;;0.40;;
76852;SDS011;65825;52.232;10.566;2024-02-23T11:53:03;2.03;;;0.43;;
76852;SDS011;65825;52.232;10.566;2024-02-23T11:55:29;3.75;;;0.70;;
76852;SDS011;65825;52.232;10.566;2024-02-23T11:57:55;2.65;;;0.63;;
76852;SDS011;65825;52.232;10.566;2024-02-23T12:00:20;2.33;;;0.60;;
76852;SDS011;65825;52.232;10.566;2024-02-23T12:02:45;1.20;;;0.47;;
76852;SDS011;65825;52.232;10.566;2024-02-23T12:05:15;1.83;;;0.25;;
76852;SDS011;65825;52.232;10.566;2024-02-23T12:07:40;3.03;;;0.63;;
76852;SDS011;65825;52.232;10.566;2024-02-23T12:10:06;2.95;;;0.70;;
76852;SDS011;65825;52.232;10.566;2024-02-23T12:12:32;2.65;;;0.60;;
76852;SDS011;65825;52.232;10.566;2024-02-23T12:14:58;3.07;;;0.43;;
76852;SDS011;65825;52.232;10.566;2024-02-23T12:17:24;2.35;;;0.63;;
76852;SDS011;65825;52.232;10.566;2024-02-23T12:19:57;3.22;;;0.55;;
76852;SDS011;65825;52.232;10.566;2024-02-23T12:22:24;1.42;;;0.50;;
76852;SDS011;65825;52.232;10.566;2024-02-23T12:24:50;1.63;;;0.65;;
76852;SDS011;65825;52.232;10.566;2024-02-23T12:27:18;4.77;;;0.60;;
76852;SDS011;65825;52.232;10.566;2024-02-23T12:29:51;2.15;;;0.50;;
76852;SDS011;65825;52.232;10.566;2024-02-23T12:32:20;2.65;;;0.60;;
76852;SDS011;65825;52.232;10.566;2024-02-23T12:34:46;5.15;;;0.73;;
76852;SDS011;65825;52.232;10.566;2024-02-23T12:37:15;4.32;;;0.60;;
76852;SDS011;65825;52.232;10.566;2024-02-23T12:39:41;3.03;;;0.50;;
76852;SDS011;65825;52.232;10.566;2024-02-23T12:42:07;4.40;;;0.68;;
76852;SDS011;65825;52.232;10.566;2024-02-23T12:44:32;0.93;;;0.35;;
76852;SDS011;65825;52.232;10.566;2024-02-23T12:46:58;2.85;;;0.68;;
76852;SDS011;65825;52.232;10.566;2024-02-23T12:49:23;3.00;;;0.50;;
76852;SDS011;65825;52.232;10.566;2024-02-23T12:51:48;1.63;;;0.50;;
76852;SDS011;65825;52.232;10.566;2024-02-23T12:54:14;2.15;;;0.50;;
76852;SDS011;65825;52.232;10.566;2024-02-23T12:56:39;2.93;;;0.63;;
76852;SDS011;65825;52.232;10.566;2024-02-23T12:59:04;2.50;;;0.60;;
76852;SDS011;65825;52.232;10.566;2024-02-23T13:01:30;4.68;;;0.70;;
76852;SDS011;65825;52.232;10.566;2024-02-23T13:03:59;3.03;;;0.90;;
76852;SDS011;65825;52.232;10.566;2024-02-23T13:06:24;2.07;;;0.53;;
76852;SDS011;65825;52.232;10.566;2024-02-23T13:08:50;1.23;;;0.63;;
76852;SDS011;65825;52.232;10.566;2024-02-23T13:11:15;1.15;;;0.50;;
76852;SDS011;65825;52.232;10.566;2024-02-23T13:13:41;3.73;;;0.57;;
76852;SDS011;65825;52.232;10.566;2024-02-23T13:16:06;2.40;;;0.50;;
76852;SDS011;65825;52.232;10.566;2024-02-23T13:18:31;1.17;;;0.40;;
76852;SDS011;65825;52.232;10.566;2024-02-23T13:20:57;1.13;;;0.40;;
76852;SDS011;65825;52.232;10.566;2024-02-23T13:23:22;2.37;;;0.50;;
76852;SDS011;65825;52.232;10.566;2024-02-23T13:25:47;2.83;;;0.30;;
76852;SDS011;65825;52.232;10.566;2024-02-23T13:28:12;1.33;;;0.53;;
76852;SDS011;65825;52.232;10.566;2024-02-23T13:30:38;2.90;;;0.70;;
76852;SDS011;65825;52.232;10.566;2024-02-23T13:33:04;1.65;;;0.50;;
76852;SDS011;65825;52.232;10.566;2024-02-23T13:35:31;3.55;;;0.50;;
76852;SDS011;65825;52.232;10.566;2024-02-23T13:37:56;2.40;;;0.50;;
76852;SDS011;65825;52.232;10.566;2024-02-23T13:40:22;2.47;;;0.30;;
76852;SDS011;65825;52.232;10.566;2024-02-23T13:42:48;0.65;;;0.50;;
76852;SDS011;65825;52.232;10.566;2024-02-23T13:45:17;2.10;;;0.45;;
76852;SDS011;65825;52.232;10.566;2024-02-23T13:47:44;1.73;;;0.50;;
76852;SDS011;65825;52.232;10.566;2024-02-23T13:50:21;3.00;;;0.47;;
76852;SDS011;65825;52.232;10.566;2024-02-23T13:52:47;2.83;;;0.57;;
76852;SDS011;65825;52.232;10.566;2024-02-23T13:55:12;1.08;;;0.40;;
76852;SDS011;65825;52.232;10.566;2024-02-23T13:57:39;4.65;;;0.50;;
76852;SDS011;65825;52.232;10.566;2024-02-23T14:00:04;1.63;;;0.50;;
76852;SDS011;65825;52.232;10.566;2024-02-23T14:02:33;1.50;;;0.50;;
76852;SDS011;65825;52.232;10.566;2024-02-23T14:05:00;1.55;;;0.73;;
76852;SDS011;65825;52.232;10.566;2024-02-23T14:07:31;2.03;;;0.38;;
76852;SDS011;65825;52.232;10.566;2024-02-23T14:09:56;2.97;;;0.73;;
76852;SDS011;65825;52.232;10.566;2024-02-23T14:12:22;2.20;;;0.60;;
76852;SDS011;65825;52.232;10.566;2024-02-23T14:14:47;0.47;;;0.33;;
76852;SDS011;65825;52.232;10.566;2024-02-23T14:17:12;1.00;;;0.30;;
76852;SDS011;65825;52.232;10.566;2024-02-23T14:19:39;1.92;;;0.50;;
76852;SDS011;65825;52.232;10.566;2024-02-23T14:22:04;3.27;;;0.73;;
76852;SDS011;65825;52.232;10.566;2024-02-23T14:24:29;8.10;;;2.93;;
76852;SDS011;65825;52.232;10.566;2024-02-23T14:26:54;2.97;;;1.00;;
76852;SDS011;65825;52.232;10.566;2024-02-23T14:29:20;3.23;;;0.90;;